Time;durP1;ratioP1;P1;durP2;ratioP2;P2;SDS_P1;SDS_P2;PMS_P1;PMS_P2;Temp;Humidity;BMP_temperature;BMP_pressure;BME280_temperature;BME280_humidity;BME280_pressure;Samples;Min_cycle;Max_cycle;Signal;HPM_P1;HPM_P2
2024/03/03 00:01:53;;;;;;;11.65;8.55;;;;;;;6.14;100.00;96844.03;1224994;75;2911776;-65
2024/03/03 00:04:26;;;;;;;10.05;8.15;;;;;;;6.10;100.00;96842.72;1224298;75;2918343;-65
2024/03/03 00:06:59;;;;;;;10.85;8.00;;;;;;;6.10;100.00;96834.56;1225301;75;2924281;-65
2024/03/03 00:09:32;;;;;;;9.30;7.60;;;;;;;5.96;100.00;96834.09;1225430;75;2915072;-64
2024/03/03 00:12:08;;;;;;;10.15;8.10;;;;;;;6.03;100.00;96832.97;1225330;75;2927868;-63
2024/03/03 00:14:41;;;;;;;12.20;9.60;;;;;;;5.91;100.00;96834.69;1225257;75;2911882;-66
2024/03/03 00:17:14;;;;;;;12.80;10.50;;;;;;;5.86;100.00;96831.84;1225883;75;2918061;-65
2024/03/03 00:19:47;;;;;;;14.45;11.00;;;;;;;5.80;100.00;96834.47;1225534;75;2921334;-64
2024/03/03 00:22:20;;;;;;;15.65;11.80;;;;;;;5.83;100.00;96843.66;1224247;75;2918332;-65
2024/03/03 00:24:53;;;;;;;14.00;10.90;;;;;;;5.68;100.00;96836.22;1224786;75;2937038;-66
2024/03/03 00:27:30;;;;;;;14.30;11.05;;;;;;;5.61;100.00;96831.13;1225007;75;2917282;-65
2024/03/03 00:30:02;;;;;;;16.90;10.70;;;;;;;5.70;100.00;96835.72;1224897;75;2915946;-67
2024/03/03 00:32:35;;;;;;;11.15;8.95;;;;;;;5.74;100.00;96814.59;1223971;75;2928664;-63
2024/03/03 00:35:14;;;;;;;10.65;8.60;;;;;;;5.66;100.00;96816.91;1225888;75;2914769;-64
2024/03/03 00:37:47;;;;;;;11.20;8.60;;;;;;;5.68;100.00;96821.88;1225648;75;2914994;-64
2024/03/03 00:40:20;;;;;;;12.05;9.25;;;;;;;5.61;100.00;96820.25;1225193;75;2924932;-63
2024/03/03 00:42:56;;;;;;;10.80;8.45;;;;;;;5.63;100.00;96826.00;1224952;75;2949914;-63
2024/03/03 00:45:30;;;;;;;12.80;7.85;;;;;;;5.64;100.00;96822.03;1225546;75;2915036;-65
2024/03/03 00:48:04;;;;;;;12.55;8.60;;;;;;;5.51;100.00;96825.00;1225332;75;2918688;-65
2024/03/03 00:50:37;;;;;;;13.15;8.40;;;;;;;5.58;100.00;96825.84;1223656;75;2924833;-64
2024/03/03 00:53:09;;;;;;;10.80;7.90;;;;;;;5.53;100.00;96821.81;1224532;75;2922088;-65
2024/03/03 00:55:46;;;;;;;9.85;7.85;;;;;;;5.58;100.00;96817.72;1225200;75;2924089;-64
2024/03/03 00:58:22;;;;;;;10.25;7.45;;;;;;;5.43;100.00;96809.50;1225373;75;2920959;-64
2024/03/03 01:00:55;;;;;;;9.25;7.00;;;;;;;5.42;100.00;96808.75;1225603;75;2932740;-65
2024/03/03 01:03:30;;;;;;;7.85;6.55;;;;;;;5.46;100.00;96822.94;1224781;75;2912501;-64
2024/03/03 01:06:03;;;;;;;8.35;6.15;;;;;;;5.38;100.00;96818.28;1225134;75;2914664;-65
2024/03/03 01:08:35;;;;;;;7.65;6.15;;;;;;;5.39;100.00;96828.69;1224861;75;2911696;-64
2024/03/03 01:11:08;;;;;;;10.00;7.10;;;;;;;5.29;100.00;96824.50;1224007;75;2915175;-65
2024/03/03 01:13:44;;;;;;;8.05;6.25;;;;;;;5.24;100.00;96822.44;1197844;75;5092288;-64
2024/03/03 01:16:17;;;;;;;8.35;6.00;;;;;;;5.24;100.00;96820.50;1224582;75;2934541;-65
2024/03/03 01:18:50;;;;;;;7.55;5.75;;;;;;;5.27;100.00;96821.53;1223452;75;2946676;-64
2024/03/03 01:21:23;;;;;;;8.60;6.95;;;;;;;5.22;100.00;96817.47;1224844;75;2915503;-64
2024/03/03 01:23:56;;;;;;;8.45;6.20;;;;;;;5.25;100.00;96824.69;1224547;75;2916555;-67
2024/03/03 01:26:29;;;;;;;7.65;5.85;;;;;;;5.20;100.00;96811.00;1225038;75;2917571;-65
2024/03/03 01:29:04;;;;;;;6.40;5.15;;;;;;;5.14;100.00;96808.16;1224170;75;2925648;-63
2024/03/03 01:31:37;;;;;;;9.00;6.40;;;;;;;5.08;100.00;96810.75;1223771;75;2914719;-64
2024/03/03 01:34:10;;;;;;;12.55;8.85;;;;;;;4.71;100.00;96810.13;1224844;75;2920370;-66
2024/03/03 01:36:43;;;;;;;10.55;7.80;;;;;;;4.82;100.00;96793.38;1225788;75;2916604;-63
2024/03/03 01:39:15;;;;;;;12.45;9.35;;;;;;;4.58;100.00;96796.78;1225238;75;2910787;-65
2024/03/03 01:41:49;;;;;;;14.55;10.70;;;;;;;4.64;100.00;96792.25;1224160;75;2918710;-65
2024/03/03 01:44:24;;;;;;;11.70;9.20;;;;;;;4.65;100.00;96788.31;1225272;75;2921279;-64
2024/03/03 01:46:57;;;;;;;10.50;8.45;;;;;;;4.74;100.00;96792.97;1225084;75;2910231;-65
2024/03/03 01:49:32;;;;;;;11.75;9.40;;;;;;;4.51;100.00;96797.09;1224347;75;2918674;-66
2024/03/03 01:52:07;;;;;;;9.90;8.45;;;;;;;4.66;100.00;96789.06;1224447;75;2920956;-65
2024/03/03 01:54:41;;;;;;;8.75;6.85;;;;;;;4.72;100.00;96783.78;1224397;75;2923088;-65
2024/03/03 01:57:19;;;;;;;8.10;7.00;;;;;;;4.72;100.00;96786.50;1224706;75;2914492;-65
2024/03/03 01:59:56;;;;;;;8.00;6.80;;;;;;;4.75;100.00;96778.19;1225194;75;2913924;-65
2024/03/03 02:02:29;;;;;;;6.90;6.10;;;;;;;4.71;100.00;96780.31;1224060;75;2916104;-64
2024/03/03 02:05:03;;;;;;;7.35;6.00;;;;;;;4.59;100.00;96786.69;1224377;75;2918198;-65
2024/03/03 02:07:36;;;;;;;12.85;10.55;;;;;;;4.42;100.00;96783.56;1224584;75;2947606;-65
2024/03/03 02:10:11;;;;;;;13.05;10.55;;;;;;;4.51;100.00;96782.78;1224347;75;2915785;-65
2024/03/03 02:12:45;;;;;;;8.80;7.30;;;;;;;4.58;100.00;96779.75;1224968;75;2913253;-66
2024/03/03 02:15:21;;;;;;;7.70;6.80;;;;;;;4.58;100.00;96777.81;1225168;75;2915010;-63
2024/03/03 02:17:55;;;;;;;7.55;6.55;;;;;;;4.54;100.00;96777.19;1225501;75;2911223;-66
2024/03/03 02:20:28;;;;;;;7.05;6.10;;;;;;;4.49;100.00;96770.44;1224268;75;2920331;-63
2024/03/03 02:23:03;;;;;;;7.95;6.65;;;;;;;4.44;100.00;96771.06;1223841;75;2915839;-65
2024/03/03 02:25:36;;;;;;;8.30;6.90;;;;;;;4.42;100.00;96765.34;1224186;75;2919710;-64
2024/03/03 02:28:10;;;;;;;7.40;6.40;;;;;;;4.46;100.00;96757.06;1223463;67;3027042;-65
2024/03/03 02:30:43;;;;;;;6.05;5.40;;;;;;;4.38;100.00;96764.03;1224684;75;2917876;-65
2024/03/03 02:33:16;;;;;;;6.05;4.95;;;;;;;4.42;100.00;96762.63;1224279;75;2911219;-61
2024/03/03 02:35:48;;;;;;;6.60;5.30;;;;;;;4.40;100.00;96764.28;1224429;75;2919288;-65
2024/03/03 02:38:24;;;;;;;6.10;5.05;;;;;;;4.42;100.00;96753.75;1224854;75;2925720;-63
2024/03/03 02:40:57;;;;;;;6.35;5.30;;;;;;;4.41;100.00;96758.44;1224406;75;2915014;-61
2024/03/03 02:43:30;;;;;;;6.85;5.10;;;;;;;4.23;100.00;96756.53;1224865;75;2912180;-64
2024/03/03 02:46:02;;;;;;;7.25;6.00;;;;;;;4.26;100.00;96752.91;1225083;75;2916151;-66
2024/03/03 02:48:35;;;;;;;7.05;5.65;;;;;;;4.24;100.00;96747.19;1224876;75;2915507;-65
2024/03/03 02:51:08;;;;;;;5.90;4.85;;;;;;;4.19;100.00;96745.09;1223680;75;2922459;-63
2024/03/03 02:53:44;;;;;;;7.70;6.30;;;;;;;4.03;100.00;96750.84;1225431;75;2913482;-63
2024/03/03 02:56:17;;;;;;;12.75;10.70;;;;;;;3.77;100.00;96753.84;1224344;75;2916555;-63
2024/03/03 02:58:50;;;;;;;16.45;12.70;;;;;;;3.40;100.00;96743.03;1223762;75;2923906;-66
2024/03/03 03:01:23;;;;;;;17.05;13.75;;;;;;;3.43;100.00;96746.78;1223892;75;2937375;-65
2024/03/03 03:03:56;;;;;;;19.35;14.25;;;;;;;3.45;100.00;96746.34;1225829;75;2917281;-64
2024/03/03 03:06:28;;;;;;;15.10;11.95;;;;;;;3.62;100.00;96742.88;1224167;75;2920150;-66
2024/03/03 03:09:04;;;;;;;11.35;10.15;;;;;;;3.79;100.00;96743.34;1224779;75;2918310;-63
2024/03/03 03:11:37;;;;;;;13.30;10.55;;;;;;;3.72;100.00;96745.59;1223729;75;2924565;-65
2024/03/03 03:14:10;;;;;;;11.20;9.30;;;;;;;3.68;100.00;96736.88;1225024;75;2924891;-63
2024/03/03 03:16:44;;;;;;;9.05;8.05;;;;;;;3.59;100.00;96724.84;1224855;75;2917499;-62
2024/03/03 03:19:17;;;;;;;9.75;8.05;;;;;;;3.65;100.00;96730.41;1225149;75;2914073;-64
2024/03/03 03:21:50;;;;;;;7.80;6.80;;;;;;;3.73;100.00;96720.03;1224578;75;2917652;-63
2024/03/03 03:24:26;;;;;;;8.55;7.50;;;;;;;3.53;100.00;96726.66;1224550;75;2911897;-64
2024/03/03 03:26:59;;;;;;;7.35;5.95;;;;;;;3.69;100.00;96730.25;1224457;75;2919919;-65
2024/03/03 03:29:32;;;;;;;6.00;5.05;;;;;;;3.66;100.00;96729.22;1225255;75;2923630;-63
2024/03/03 03:32:05;;;;;;;9.10;7.60;;;;;;;3.58;100.00;96730.72;1224321;75;2912421;-63
2024/03/03 03:34:37;;;;;;;7.40;6.15;;;;;;;3.65;100.00;96722.28;1225313;75;2924111;-64
2024/03/03 03:37:10;;;;;;;7.05;6.20;;;;;;;3.49;100.00;96726.06;1224906;75;2922426;-65
2024/03/03 03:39:46;;;;;;;6.70;6.00;;;;;;;3.50;100.00;96732.97;1225173;75;2913189;-64
2024/03/03 03:42:19;;;;;;;6.95;6.10;;;;;;;3.53;100.00;96734.75;1224349;75;2921281;-68
2024/03/03 03:44:52;;;;;;;7.25;6.05;;;;;;;3.59;100.00;96732.22;1225566;75;2916517;-64
2024/03/03 03:47:25;;;;;;;9.40;7.80;;;;;;;3.42;100.00;96731.78;1225327;75;2915309;-65
2024/03/03 03:49:57;;;;;;;11.65;9.55;;;;;;;3.45;100.00;96738.22;1225561;75;2915005;-64
2024/03/03 03:52:31;;;;;;;9.20;7.75;;;;;;;3.52;100.00;96729.81;1220949;75;3004989;-65
2024/03/03 03:55:07;;;;;;;11.10;7.95;;;;;;;3.20;100.00;96742.72;1225315;75;2914347;-65
2024/03/03 03:57:41;;;;;;;12.40;10.75;;;;;;;3.21;100.00;96749.63;1224468;75;2926406;-64
2024/03/03 04:00:15;;;;;;;9.65;7.90;;;;;;;3.44;100.00;96734.78;1226202;75;2888239;-65
2024/03/03 04:02:49;;;;;;;9.15;7.90;;;;;;;3.41;100.00;96744.53;1225120;75;2930681;-67
2024/03/03 04:05:22;;;;;;;7.55;6.45;;;;;;;3.46;100.00;96745.13;1224699;75;2911973;-64
2024/03/03 04:07:55;;;;;;;7.45;5.60;;;;;;;3.39;100.00;96741.53;1226084;75;2921900;-64
2024/03/03 04:10:30;;;;;;;8.55;7.45;;;;;;;3.08;100.00;96747.06;1224690;75;2926013;-64
2024/03/03 04:13:03;;;;;;;9.20;7.45;;;;;;;3.15;100.00;96740.59;1225323;75;2921517;-62
2024/03/03 04:15:36;;;;;;;10.35;8.65;;;;;;;3.02;100.00;96743.41;1224335;75;2928221;-66
2024/03/03 04:18:09;;;;;;;8.20;6.70;;;;;;;3.14;100.00;96734.44;1223357;75;2929776;-63
2024/03/03 04:20:42;;;;;;;6.75;5.70;;;;;;;3.23;100.00;96735.66;1224987;75;2919698;-62
2024/03/03 04:23:17;;;;;;;5.75;5.10;;;;;;;3.19;100.00;96736.53;1224666;75;2912341;-65
2024/03/03 04:25:52;;;;;;;5.60;4.60;;;;;;;3.09;100.00;96728.88;1223395;75;2915066;-65
2024/03/03 04:28:25;;;;;;;9.40;5.90;;;;;;;2.90;100.00;96728.06;1224311;75;2918676;-65
2024/03/03 04:30:58;;;;;;;7.70;6.20;;;;;;;3.03;100.00;96720.59;1224125;75;2928070;-63
2024/03/03 04:33:31;;;;;;;6.65;5.50;;;;;;;3.08;100.00;96732.75;1224695;75;2926328;-64
2024/03/03 04:36:04;;;;;;;10.20;8.35;;;;;;;2.76;100.00;96724.72;1224218;75;2915245;-65
2024/03/03 04:38:36;;;;;;;10.55;8.40;;;;;;;3.02;100.00;96723.75;1224426;75;2921293;-64
2024/03/03 04:41:19;;;;;;;8.60;7.35;;;;;;;3.12;100.00;96723.31;1222400;75;2927751;-65
2024/03/03 04:43:52;;;;;;;7.15;6.25;;;;;;;3.17;100.00;96721.97;1224363;75;2918607;-65
2024/03/03 04:46:25;;;;;;;6.90;6.05;;;;;;;3.07;100.00;96725.84;1224380;75;2914489;-64
2024/03/03 04:48:57;;;;;;;6.65;5.50;;;;;;;3.06;100.00;96727.06;1225084;75;2914126;-65
2024/03/03 04:51:30;;;;;;;5.95;4.80;;;;;;;3.18;100.00;96726.19;1223932;75;2911472;-64
2024/03/03 04:54:03;;;;;;;4.85;4.25;;;;;;;3.11;100.00;96726.47;1223710;75;2918474;-64
2024/03/03 04:56:39;;;;;;;7.15;5.90;;;;;;;2.92;100.00;96741.91;1224602;75;2924542;-65
2024/03/03 04:59:11;;;;;;;10.05;8.20;;;;;;;2.78;100.00;96735.09;1225028;75;2915127;-65
2024/03/03 05:01:45;;;;;;;8.95;7.35;;;;;;;2.98;100.00;96730.06;1223930;75;2925393;-66
2024/03/03 05:04:17;;;;;;;7.75;6.00;;;;;;;3.06;100.00;96724.38;1224420;75;2920893;-65
2024/03/03 05:06:51;;;;;;;6.75;5.60;;;;;;;3.06;100.00;96730.53;1223980;75;2921230;-64
2024/03/03 05:09:24;;;;;;;9.95;8.15;;;;;;;2.71;100.00;96733.41;1224999;75;2918025;-65
2024/03/03 05:11:59;;;;;;;11.60;10.35;;;;;;;2.70;100.00;96742.00;1223475;75;2914609;-62
2024/03/03 05:14:32;;;;;;;10.10;8.20;;;;;;;2.93;100.00;96738.72;1192251;75;5608450;-65
2024/03/03 05:17:05;;;;;;;7.65;6.85;;;;;;;2.87;100.00;96743.25;1225259;75;2918971;-64
2024/03/03 05:19:38;;;;;;;10.65;9.15;;;;;;;2.83;100.00;96731.06;1224901;75;2918845;-63
2024/03/03 05:22:10;;;;;;;12.30;9.50;;;;;;;2.88;100.00;96731.22;1224016;75;2920538;-64
2024/03/03 05:24:44;;;;;;;14.60;11.75;;;;;;;2.75;100.00;96742.16;1224120;75;2934757;-65
2024/03/03 05:27:19;;;;;;;11.90;9.40;;;;;;;2.78;100.00;96735.09;1224426;75;2927388;-64
2024/03/03 05:29:52;;;;;;;8.70;7.60;;;;;;;2.72;100.00;96742.31;1224817;75;2915599;-64
2024/03/03 05:32:25;;;;;;;7.70;6.90;;;;;;;2.77;100.00;96739.00;1221514;75;2912412;-64
2024/03/03 05:34:58;;;;;;;10.00;7.35;;;;;;;2.86;100.00;96733.63;1225775;75;2918168;-63
2024/03/03 05:37:30;;;;;;;8.70;7.20;;;;;;;2.74;100.00;96735.25;1225475;75;2918410;-64
2024/03/03 05:40:03;;;;;;;6.20;5.55;;;;;;;2.69;100.00;96746.63;1225630;75;2917889;-64
2024/03/03 05:42:39;;;;;;;7.25;5.75;;;;;;;2.78;100.00;96740.50;1224786;75;2917289;-64
2024/03/03 05:45:12;;;;;;;6.75;5.15;;;;;;;2.73;100.00;96741.84;1224959;75;2913296;-64
2024/03/03 05:47:45;;;;;;;6.35;5.40;;;;;;;2.62;100.00;96738.81;1224564;75;2925851;-65
2024/03/03 05:50:18;;;;;;;13.00;7.30;;;;;;;2.56;100.00;96748.69;1224619;75;2917032;-64
2024/03/03 05:52:51;;;;;;;7.15;6.10;;;;;;;2.74;100.00;96734.47;1225044;75;2919921;-66
2024/03/03 05:55:24;;;;;;;6.00;5.40;;;;;;;2.72;100.00;96734.19;1224384;75;2955086;-63
2024/03/03 05:57:59;;;;;;;7.30;5.05;;;;;;;2.70;100.00;96736.59;1223840;75;2919963;-64
2024/03/03 06:00:32;;;;;;;5.30;4.40;;;;;;;2.72;100.00;96732.25;1224042;75;2926351;-65
2024/03/03 06:03:05;;;;;;;4.80;3.90;;;;;;;2.78;100.00;96729.69;1224275;75;2929881;-62
2024/03/03 06:05:38;;;;;;;5.10;4.60;;;;;;;2.64;100.00;96738.34;1223445;75;2922547;-64
2024/03/03 06:08:13;;;;;;;8.95;6.90;;;;;;;2.48;100.00;96736.66;1224399;75;2930027;-63
2024/03/03 06:10:46;;;;;;;9.15;7.80;;;;;;;2.47;100.00;96729.72;1225019;75;2921391;-63
2024/03/03 06:13:22;;;;;;;8.00;6.80;;;;;;;2.39;100.00;96742.00;1224261;75;2920831;-64
2024/03/03 06:15:55;;;;;;;8.00;6.85;;;;;;;2.43;100.00;96751.47;1224252;75;2914858;-63
2024/03/03 06:18:28;;;;;;;9.50;8.45;;;;;;;2.63;100.00;96748.41;1224796;75;2937739;-62
2024/03/03 06:21:01;;;;;;;7.50;6.80;;;;;;;2.83;100.00;96748.03;1224198;75;2914833;-62
2024/03/03 06:23:36;;;;;;;7.55;6.65;;;;;;;2.94;100.00;96751.06;1224731;75;2917208;-64
2024/03/03 06:26:08;;;;;;;6.45;5.75;;;;;;;2.92;100.00;96748.06;1224913;75;2919580;-66
2024/03/03 06:28:45;;;;;;;8.50;7.60;;;;;;;2.88;100.00;96743.97;1223797;75;2931330;-64
2024/03/03 06:31:18;;;;;;;7.65;6.50;;;;;;;3.05;100.00;96734.41;1223183;75;2916883;-64
2024/03/03 06:33:50;;;;;;;8.75;7.70;;;;;;;3.18;100.00;96747.81;1225337;75;2916474;-63
2024/03/03 06:36:24;;;;;;;6.60;5.90;;;;;;;3.30;100.00;96743.50;1224694;75;2918356;-66
2024/03/03 06:38:57;;;;;;;5.60;5.00;;;;;;;3.41;100.00;96749.19;1223743;75;2919532;-64
2024/03/03 06:41:30;;;;;;;5.70;4.30;;;;;;;3.59;100.00;96745.75;1223574;75;2923978;-65
2024/03/03 06:44:05;;;;;;;4.25;3.85;;;;;;;3.81;100.00;96734.78;1224373;75;2920906;-64
2024/03/03 06:46:43;;;;;;;3.95;3.35;;;;;;;3.93;100.00;96733.09;1223021;75;2916384;-65
2024/03/03 06:49:16;;;;;;;4.05;3.50;;;;;;;4.13;100.00;96736.06;1224986;75;2930281;-64
2024/03/03 06:51:49;;;;;;;3.50;3.15;;;;;;;4.35;100.00;96743.97;1223404;75;2922242;-64
2024/03/03 06:54:21;;;;;;;5.15;4.55;;;;;;;4.43;100.00;96742.47;1224827;75;2921425;-66
2024/03/03 06:56:54;;;;;;;5.85;4.95;;;;;;;4.66;100.00;96735.59;1224611;67;2917689;-65
2024/03/03 06:59:32;;;;;;;5.65;4.80;;;;;;;4.97;100.00;96723.69;1223108;75;2925587;-64
2024/03/03 07:02:05;;;;;;;7.40;5.50;;;;;;;5.10;100.00;96731.63;1223581;75;2922498;-63
2024/03/03 07:04:38;;;;;;;7.55;5.95;;;;;;;5.22;100.00;96736.06;1223361;75;2919789;-64
2024/03/03 07:07:11;;;;;;;7.60;6.80;;;;;;;5.64;100.00;96727.00;1224009;75;2920595;-64
2024/03/03 07:09:44;;;;;;;11.05;9.00;;;;;;;6.04;100.00;96728.50;1223785;75;2922288;-64
2024/03/03 07:12:16;;;;;;;8.40;7.35;;;;;;;6.36;100.00;96737.69;1223638;75;2926299;-65
2024/03/03 07:14:52;;;;;;;7.70;6.40;;;;;;;6.81;100.00;96726.75;1222326;75;2923838;-63
2024/03/03 07:17:25;;;;;;;8.65;6.95;;;;;;;7.03;100.00;96731.75;1225173;75;2918901;-65
2024/03/03 07:20:00;;;;;;;6.25;5.05;;;;;;;7.19;100.00;96733.19;1223971;75;2919316;-68
2024/03/03 07:22:34;;;;;;;6.25;5.15;;;;;;;7.22;100.00;96735.72;1224125;75;2918625;-64
2024/03/03 07:25:08;;;;;;;7.25;6.45;;;;;;;7.43;100.00;96739.22;1224163;67;2921897;-64
2024/03/03 07:27:41;;;;;;;5.40;4.80;;;;;;;7.67;100.00;96743.66;1224058;75;2920155;-65
2024/03/03 07:30:17;;;;;;;5.70;4.85;;;;;;;8.05;100.00;96745.31;1224982;75;2918126;-63
2024/03/03 07:32:50;;;;;;;5.80;4.60;;;;;;;8.38;100.00;96741.41;1223738;75;2920601;-65
2024/03/03 07:35:23;;;;;;;4.90;3.80;;;;;;;8.71;100.00;96740.94;1224506;75;2913594;-65
2024/03/03 07:37:55;;;;;;;8.50;5.90;;;;;;;8.13;100.00;96744.88;1222892;75;3021769;-65
2024/03/03 07:40:33;;;;;;;6.15;5.00;;;;;;;8.56;100.00;96745.03;1225279;75;2919032;-67
2024/03/03 07:43:05;;;;;;;6.75;5.50;;;;;;;8.75;100.00;96743.44;1224817;75;2914621;-65
2024/03/03 07:45:41;;;;;;;5.15;4.05;;;;;;;9.17;100.00;96747.44;1223638;75;2915070;-66
2024/03/03 07:48:14;;;;;;;5.85;4.20;;;;;;;9.40;100.00;96745.56;1223573;75;2918756;-64
2024/03/03 07:50:47;;;;;;;5.95;4.30;;;;;;;9.59;100.00;96752.09;1223659;75;2929539;-64
2024/03/03 07:53:19;;;;;;;4.60;3.55;;;;;;;10.15;100.00;96751.53;1222005;75;2925466;-65
2024/03/03 07:55:52;;;;;;;4.85;2.85;;;;;;;10.19;100.00;96756.75;1218860;75;3186073;-66
2024/03/03 07:58:25;;;;;;;4.55;3.15;;;;;;;10.84;100.00;96751.06;1223281;75;2920272;-65
2024/03/03 08:01:03;;;;;;;3.50;2.70;;;;;;;10.95;100.00;96749.56;1223610;75;2930750;-65
2024/03/03 08:03:36;;;;;;;5.80;3.80;;;;;;;10.48;100.00;96744.59;1225302;75;2921982;-67
2024/03/03 08:06:09;;;;;;;5.70;3.50;;;;;;;10.58;100.00;96754.09;1223885;75;2924623;-64
2024/03/03 08:08:42;;;;;;;4.75;3.10;;;;;;;11.64;100.00;96744.16;1224847;75;2921842;-64
2024/03/03 08:11:15;;;;;;;3.75;2.10;;;;;;;11.97;89.85;96730.78;1222993;75;2921560;-66
2024/03/03 08:13:48;;;;;;;3.60;1.90;;;;;;;12.88;90.10;96737.84;1223468;75;2912455;-65
2024/03/03 08:16:23;;;;;;;2.75;1.90;;;;;;;13.34;81.72;96738.16;1224401;75;2914698;-66
2024/03/03 08:18:56;;;;;;;3.80;2.25;;;;;;;13.31;80.80;96742.69;1223094;75;2920652;-64
2024/03/03 08:21:29;;;;;;;3.55;2.00;;;;;;;13.36;78.63;96736.38;1222447;75;2917555;-66
2024/03/03 08:24:02;;;;;;;2.20;1.60;;;;;;;13.95;75.60;96735.91;1221845;75;2930496;-69
2024/03/03 08:26:35;;;;;;;2.60;1.95;;;;;;;13.83;73.60;96744.34;1222849;75;2916709;-67
2024/03/03 08:29:08;;;;;;;2.85;2.05;;;;;;;13.11;74.20;96746.63;1223375;75;2923318;-63
2024/03/03 08:31:44;;;;;;;2.25;1.55;;;;;;;13.71;73.33;96742.22;1222411;75;2929435;-66
2024/03/03 08:34:17;;;;;;;3.75;1.60;;;;;;;14.31;71.49;96743.94;1223561;75;2923709;-69
2024/03/03 08:36:50;;;;;;;1.70;1.25;;;;;;;13.98;70.56;96734.91;1222762;75;2914518;-67
2024/03/03 08:39:23;;;;;;;5.85;3.30;;;;;;;13.63;71.29;96736.56;1223103;83;2916565;-66
2024/03/03 08:41:58;;;;;;;2.65;1.60;;;;;;;13.18;72.89;96743.31;1222514;75;2927429;-65
2024/03/03 08:44:31;;;;;;;4.65;3.30;;;;;;;13.36;71.62;96735.66;1224141;75;2913840;-66
2024/03/03 08:47:07;;;;;;;2.55;1.90;;;;;;;13.13;71.75;96727.63;1223130;75;2919501;-66
2024/03/03 08:49:40;;;;;;;3.05;2.15;;;;;;;14.26;70.45;96726.97;1222218;75;2933011;-65
2024/03/03 08:52:13;;;;;;;4.85;3.70;;;;;;;14.34;71.11;96721.59;1222962;75;2917474;-65
2024/03/03 08:54:46;;;;;;;2.15;1.70;;;;;;;14.06;69.91;96722.75;1223482;83;2918835;-68
2024/03/03 08:57:19;;;;;;;1.20;1.10;;;;;;;14.85;69.23;96718.78;1222988;75;2919771;-66
2024/03/03 08:59:52;;;;;;;2.25;1.35;;;;;;;14.52;69.52;96717.31;1222988;75;2919353;-66
2024/03/03 09:02:28;;;;;;;1.30;1.10;;;;;;;14.99;66.29;96721.59;1222842;75;2934565;-67
2024/03/03 09:05:01;;;;;;;2.45;1.30;;;;;;;14.90;67.55;96714.47;1222853;75;2924247;-67
2024/03/03 09:07:34;;;;;;;1.55;1.10;;;;;;;15.22;67.30;96717.13;1222775;75;2926269;-66
2024/03/03 09:10:09;;;;;;;3.05;1.20;;;;;;;15.38;66.56;96720.09;1221381;75;2917817;-66
2024/03/03 09:12:42;;;;;;;1.70;1.05;;;;;;;16.03;65.96;96712.28;1222698;75;2918550;-66
2024/03/03 09:15:15;;;;;;;2.00;1.65;;;;;;;14.62;70.00;96720.44;1199241;75;4856593;-67
2024/03/03 09:17:50;;;;;;;2.65;1.85;;;;;;;13.51;71.27;96713.97;1222328;75;2912975;-66
2024/03/03 09:20:23;;;;;;;2.45;1.40;;;;;;;13.93;69.50;96708.94;1223499;75;2933622;-64
2024/03/03 09:22:58;;;;;;;2.45;1.55;;;;;;;14.77;68.14;96715.19;1223096;75;2918562;-64
2024/03/03 09:25:31;;;;;;;1.85;1.30;;;;;;;14.57;67.41;96711.00;1222469;75;2942958;-65
2024/03/03 09:28:03;;;;;;;2.30;1.30;;;;;;;14.23;70.23;96717.00;1224442;75;2928580;-63
2024/03/03 09:30:37;;;;;;;4.60;2.90;;;;;;;14.48;70.13;96711.38;1223435;75;2954518;-63
2024/03/03 09:33:12;;;;;;;2.00;1.20;;;;;;;14.43;68.40;96712.19;1223662;75;2919871;-66
2024/03/03 09:35:45;;;;;;;1.30;1.00;;;;;;;14.37;68.90;96708.81;1224270;75;2919707;-66
2024/03/03 09:38:18;;;;;;;2.00;1.20;;;;;;;13.98;69.16;96702.63;1224001;75;2917312;-65
2024/03/03 09:40:51;;;;;;;2.35;1.35;;;;;;;13.98;70.55;96710.88;1223850;75;2933937;-66
2024/03/03 09:43:30;;;;;;;2.95;1.40;;;;;;;14.10;69.30;96711.47;1207826;75;4069233;-67
2024/03/03 09:46:04;;;;;;;1.55;1.10;;;;;;;14.66;67.36;96710.59;1189372;75;5759398;-64
2024/03/03 09:48:42;;;;;;;2.25;1.65;;;;;;;15.15;65.83;96715.00;1222439;75;2947003;-66
2024/03/03 09:51:17;;;;;;;1.30;1.00;;;;;;;15.34;66.13;96715.66;1223669;75;2894033;-67
2024/03/03 09:53:50;;;;;;;1.80;1.50;;;;;;;15.26;65.83;96711.31;1222710;75;2924845;-66
2024/03/03 09:56:25;;;;;;;2.85;1.85;;;;;;;15.32;65.45;96711.94;1223571;75;2984196;-66
2024/03/03 09:58:58;;;;;;;2.63;1.77;;;;;;;15.49;65.11;96717.88;1198764;75;5215422;-62
2024/03/03 10:01:33;;;;;;;2.30;1.70;;;;;;;15.70;63.64;96709.69;1219918;75;2925612;-65
2024/03/03 10:04:10;;;;;;;3.05;1.60;;;;;;;16.10;61.28;96703.34;1190830;75;5748261;-66
2024/03/03 10:06:44;;;;;;;2.55;1.10;;;;;;;16.37;61.49;96703.97;1222968;75;2988511;-65
2024/03/03 10:09:21;;;;;;;1.95;1.30;;;;;;;16.14;61.72;96698.97;1223010;75;2920940;-65
2024/03/03 10:11:57;;;;;;;2.70;1.20;;;;;;;16.51;61.41;96696.34;1192639;75;5470797;-65
2024/03/03 10:14:31;;;;;;;2.30;1.10;;;;;;;16.99;59.44;96689.38;1222447;75;2921658;-65
2024/03/03 10:17:05;;;;;;;1.55;0.95;;;;;;;17.45;58.79;96689.63;1221689;75;2944232;-67
2024/03/03 10:19:40;;;;;;;1.65;1.05;;;;;;;17.49;58.92;96696.84;1223317;75;2928464;-65
2024/03/03 10:22:20;;;;;;;1.30;1.05;;;;;;;16.54;60.17;96689.75;1223522;75;2914135;-68
2024/03/03 10:24:53;;;;;;;2.05;1.00;;;;;;;17.09;57.57;96692.38;1223948;75;2926983;-67
2024/03/03 10:27:26;;;;;;;3.70;1.10;;;;;;;17.41;57.61;96685.72;1223112;75;2953396;-66
2024/03/03 10:30:09;;;;;;;2.50;0.90;;;;;;;16.76;58.21;96686.44;1223616;75;2930232;-65
2024/03/03 10:32:42;;;;;;;2.65;0.90;;;;;;;17.30;56.23;96678.50;1223297;75;2930198;-65
2024/03/03 10:35:20;;;;;;;2.60;0.80;;;;;;;17.94;55.18;96681.72;1224378;75;2922490;-67
2024/03/03 10:37:58;;;;;;;1.70;0.70;;;;;;;17.98;53.67;96665.50;1224245;75;2904034;-67
2024/03/03 10:40:31;;;;;;;1.10;0.50;;;;;;;16.81;55.51;96674.53;1222878;75;2934690;-68
2024/03/03 10:43:04;;;;;;;0.70;0.50;;;;;;;16.96;54.38;96675.91;1223569;75;2926306;-63
2024/03/03 10:45:37;;;;;;;1.05;0.40;;;;;;;17.41;52.98;96666.38;1222352;75;2927770;-65
2024/03/03 10:48:10;;;;;;;0.30;0.30;;;;;;;18.48;51.40;96665.94;1223029;75;2931711;-64
2024/03/03 10:50:50;;;;;;;1.75;0.40;;;;;;;17.42;51.88;96665.09;1223297;75;2919709;-67
2024/03/03 10:53:26;;;;;;;2.85;0.75;;;;;;;16.90;53.64;96667.00;1222814;67;2920880;-69
2024/03/03 10:56:00;;;;;;;1.35;0.70;;;;;;;16.86;53.46;96659.06;1223038;75;2930534;-66
2024/03/03 10:58:35;;;;;;;1.10;0.70;;;;;;;16.18;53.64;96660.69;1223350;75;2924538;-64
2024/03/03 11:01:09;;;;;;;0.75;0.50;;;;;;;16.47;54.29;96646.94;1222855;75;2927875;-65
2024/03/03 11:03:44;;;;;;;0.75;0.45;;;;;;;16.09;54.04;96644.63;1222825;75;2924316;-67
2024/03/03 11:06:20;;;;;;;2.75;1.50;;;;;;;15.89;54.38;96646.06;1222570;75;2929657;-65
2024/03/03 11:08:53;;;;;;;1.60;0.80;;;;;;;16.57;52.70;96645.22;1223677;75;2931776;-66
2024/03/03 11:11:27;;;;;;;1.85;0.70;;;;;;;16.92;51.93;96640.31;1223460;75;2931893;-67
2024/03/03 11:14:06;;;;;;;1.10;0.50;;;;;;;16.94;51.74;96634.97;1223103;75;2932379;-66
2024/03/03 11:16:45;;;;;;;0.50;0.50;;;;;;;17.33;50.74;96627.59;1223439;75;2925057;-66
2024/03/03 11:19:25;;;;;;;1.50;0.50;;;;;;;16.01;52.90;96624.47;1222959;75;2935438;-66
2024/03/03 11:22:03;;;;;;;2.35;0.60;;;;;;;16.35;52.74;96618.88;1221955;75;2926747;-66
2024/03/03 11:24:41;;;;;;;4.95;0.80;;;;;;;16.08;52.81;96618.28;1223396;75;2923237;-65
2024/03/03 11:27:18;;;;;;;2.20;0.80;;;;;;;15.96;53.49;96615.03;1221672;75;2985683;-64
2024/03/03 11:29:51;;;;;;;2.55;0.75;;;;;;;15.56;54.53;96608.88;1222431;75;2921976;-66
2024/03/03 11:32:27;;;;;;;0.95;0.40;;;;;;;16.14;52.88;96621.66;1221287;75;3079243;-68
2024/03/03 11:35:00;;;;;;;1.10;0.50;;;;;;;15.81;53.64;96603.84;1223567;75;2920331;-66
2024/03/03 11:37:37;;;;;;;1.75;0.60;;;;;;;16.12;53.04;96604.16;1223878;75;2925619;-66
2024/03/03 11:40:17;;;;;;;0.90;0.40;;;;;;;16.76;52.11;96611.81;1224109;75;2926921;-65
2024/03/03 11:42:50;;;;;;;1.55;0.70;;;;;;;17.80;50.90;96609.13;1223445;75;2921285;-69
2024/03/03 11:45:47;;;;;;;7.15;0.60;;;;;;;18.58;49.26;96607.91;1223449;75;2928812;-67